createdAt,value
2024-01-18T00:00:36.268Z,100.00
2024-01-18T00:03:03.842Z,100.00
2024-01-18T00:05:31.085Z,100.00
2024-01-18T00:07:58.183Z,100.00
2024-01-18T00:10:28.719Z,100.00
2024-01-18T00:12:56.167Z,100.00
2024-01-18T00:15:23.720Z,100.00
2024-01-18T00:17:51.226Z,100.00
2024-01-18T00:20:18.569Z,100.00
2024-01-18T00:22:45.659Z,100.00
2024-01-18T00:25:20.715Z,100.00
2024-01-18T00:27:47.816Z,100.00
2024-01-18T00:30:16.696Z,100.00
2024-01-18T00:32:43.925Z,100.00
2024-01-18T00:35:11.432Z,100.00
2024-01-18T00:37:38.656Z,100.00
2024-01-18T00:40:08.023Z,100.00
2024-01-18T00:42:35.286Z,100.00
2024-01-18T00:45:02.523Z,100.00
2024-01-18T00:47:29.903Z,100.00
2024-01-18T00:49:57.130Z,100.00
2024-01-18T00:52:24.203Z,100.00
2024-01-18T00:54:51.450Z,100.00
2024-01-18T00:57:18.558Z,100.00
2024-01-18T00:59:45.795Z,100.00
2024-01-18T01:02:12.901Z,100.00
2024-01-18T01:04:40.101Z,100.00
2024-01-18T01:07:07.206Z,100.00
2024-01-18T01:09:34.425Z,100.00
2024-01-18T01:12:01.710Z,100.00
2024-01-18T01:14:28.933Z,100.00
2024-01-18T01:16:56.125Z,100.00
2024-01-18T01:19:23.310Z,100.00
2024-01-18T01:21:50.407Z,100.00
2024-01-18T01:24:17.602Z,100.00
2024-01-18T01:26:44.705Z,100.00
2024-01-18T01:29:12.644Z,100.00
2024-01-18T01:31:39.890Z,100.00
2024-01-18T01:34:07.097Z,100.00
2024-01-18T01:36:34.393Z,100.00
2024-01-18T01:39:01.946Z,100.00
2024-01-18T01:41:29.228Z,100.00
2024-01-18T01:44:00.045Z,100.00
2024-01-18T01:46:27.852Z,100.00
2024-01-18T01:49:03.453Z,100.00
2024-01-18T01:51:34.154Z,100.00
2024-01-18T01:54:03.775Z,100.00
2024-01-18T01:56:32.003Z,100.00
2024-01-18T01:58:59.135Z,100.00
2024-01-18T02:01:26.387Z,100.00
2024-01-18T02:03:53.800Z,100.00
2024-01-18T02:06:21.049Z,100.00
2024-01-18T02:08:48.246Z,100.00
2024-01-18T02:11:15.884Z,100.00
2024-01-18T02:13:43.484Z,100.00
2024-01-18T02:16:10.884Z,100.00
2024-01-18T02:18:38.160Z,100.00
2024-01-18T02:21:08.870Z,100.00
2024-01-18T02:23:37.788Z,100.00
2024-01-18T02:26:05.112Z,100.00
2024-01-18T02:28:32.241Z,100.00
2024-01-18T02:30:59.389Z,100.00
2024-01-18T02:33:26.587Z,100.00
2024-01-18T02:35:53.901Z,100.00
2024-01-18T02:38:21.265Z,100.00
2024-01-18T02:40:48.642Z,100.00
2024-01-18T02:43:15.757Z,100.00
2024-01-18T02:45:43.001Z,100.00
2024-01-18T02:48:10.321Z,100.00
2024-01-18T02:50:41.538Z,100.00
2024-01-18T02:53:08.691Z,100.00
2024-01-18T02:55:35.837Z,100.00
2024-01-18T02:58:06.266Z,100.00
2024-01-18T03:00:33.612Z,100.00
2024-01-18T03:03:00.904Z,100.00
2024-01-18T03:05:28.046Z,100.00
2024-01-18T03:07:55.671Z,100.00
2024-01-18T03:10:23.226Z,99.89
2024-01-18T03:12:50.371Z,100.00
2024-01-18T03:15:17.648Z,100.00
2024-01-18T03:17:44.842Z,100.00
2024-01-18T03:20:12.025Z,100.00
2024-01-18T03:22:40.306Z,100.00
2024-01-18T03:25:07.950Z,100.00
2024-01-18T03:27:37.560Z,100.00
2024-01-18T03:30:05.280Z,99.94
2024-01-18T03:32:32.464Z,99.96
2024-01-18T03:35:00.049Z,100.00
2024-01-18T03:37:27.371Z,100.00
2024-01-18T03:39:54.479Z,100.00
2024-01-18T03:42:21.639Z,100.00
2024-01-18T03:44:48.892Z,100.00
2024-01-18T03:47:16.162Z,100.00
2024-01-18T03:49:44.647Z,99.63
2024-01-18T03:52:13.239Z,99.40
2024-01-18T03:54:40.908Z,99.53
2024-01-18T03:57:08.078Z,99.31
2024-01-18T03:59:35.509Z,99.01
2024-01-18T04:02:02.623Z,98.63
2024-01-18T04:04:29.897Z,98.47
2024-01-18T04:06:57.170Z,98.00
2024-01-18T04:09:24.422Z,98.49
2024-01-18T04:11:51.603Z,98.26
2024-01-18T04:14:19.026Z,98.00
2024-01-18T04:16:46.146Z,98.40
2024-01-18T04:19:13.420Z,97.91
2024-01-18T04:21:40.662Z,97.59
2024-01-18T04:24:07.886Z,97.48
2024-01-18T04:26:35.602Z,97.56
2024-01-18T04:29:03.503Z,97.73
2024-01-18T04:31:30.612Z,97.19
2024-01-18T04:33:57.827Z,97.18
2024-01-18T04:36:25.056Z,96.64
2024-01-18T04:38:52.826Z,97.12
2024-01-18T04:41:20.037Z,96.84
2024-01-18T04:43:47.160Z,97.62
2024-01-18T04:46:14.309Z,97.63
2024-01-18T04:48:41.873Z,97.36
2024-01-18T04:51:09.056Z,97.49
2024-01-18T04:53:36.234Z,97.39
2024-01-18T04:56:03.503Z,97.71
2024-01-18T04:58:30.650Z,97.95
2024-01-18T05:00:57.958Z,98.03
2024-01-18T05:03:26.395Z,97.52
2024-01-18T05:05:54.008Z,97.39
2024-01-18T05:08:21.780Z,97.51
2024-01-18T05:10:49.064Z,97.02
2024-01-18T05:13:16.298Z,97.66
2024-01-18T05:15:43.439Z,97.56
2024-01-18T05:18:10.692Z,97.17
2024-01-18T05:20:46.372Z,97.36
2024-01-18T05:23:13.484Z,97.41
2024-01-18T05:25:40.573Z,96.47
2024-01-18T05:28:07.868Z,96.60
2024-01-18T05:30:35.104Z,96.93
2024-01-18T05:33:02.444Z,96.30
2024-01-18T05:35:48.146Z,96.76
2024-01-18T05:38:27.624Z,95.61
2024-01-18T05:40:54.886Z,95.77
2024-01-18T05:43:22.122Z,95.92
2024-01-18T05:45:49.432Z,95.52
2024-01-18T05:48:16.657Z,95.52
2024-01-18T05:50:43.884Z,95.93
2024-01-18T05:53:10.998Z,96.54
2024-01-18T05:55:38.348Z,96.52
2024-01-18T05:58:05.477Z,95.53
2024-01-18T06:00:32.958Z,95.96
2024-01-18T06:03:00.182Z,96.30
2024-01-18T06:05:27.914Z,95.83
2024-01-18T06:07:55.057Z,96.03
2024-01-18T06:10:22.682Z,96.08
2024-01-18T06:12:49.797Z,96.15
2024-01-18T06:15:19.615Z,96.41
2024-01-18T06:17:46.773Z,96.05
2024-01-18T06:20:16.218Z,95.88
2024-01-18T06:22:43.695Z,96.14
2024-01-18T06:25:10.921Z,95.72
2024-01-18T06:27:38.026Z,95.69
2024-01-18T06:30:11.737Z,96.33
2024-01-18T06:32:39.191Z,96.03
2024-01-18T06:35:06.657Z,96.31
2024-01-18T06:37:34.256Z,95.78
2024-01-18T06:40:01.428Z,96.18
2024-01-18T06:42:28.655Z,96.55
2024-01-18T06:44:55.766Z,96.46
2024-01-18T06:47:22.926Z,96.05
2024-01-18T06:49:50.255Z,96.37
2024-01-18T06:52:17.786Z,96.06
2024-01-18T06:54:45.251Z,96.25
2024-01-18T06:57:12.562Z,96.81
2024-01-18T06:59:49.190Z,96.86
2024-01-18T07:02:16.373Z,96.78
2024-01-18T07:04:44.970Z,96.84
2024-01-18T07:07:12.181Z,96.25
2024-01-18T07:09:39.361Z,96.65
2024-01-18T07:12:07.158Z,96.28
2024-01-18T07:14:34.991Z,96.02
2024-01-18T07:17:02.866Z,96.16
2024-01-18T07:19:30.272Z,96.27
2024-01-18T07:21:57.513Z,96.11
2024-01-18T07:24:27.715Z,96.70
2024-01-18T07:26:54.824Z,96.30
2024-01-18T07:29:21.951Z,95.38
2024-01-18T07:31:49.031Z,95.34
2024-01-18T07:34:17.620Z,95.34
2024-01-18T07:36:44.986Z,95.38
2024-01-18T07:39:12.244Z,95.61
2024-01-18T07:41:39.374Z,95.44
2024-01-18T07:44:06.584Z,95.97
2024-01-18T07:46:33.884Z,95.85
2024-01-18T07:49:02.792Z,96.09
2024-01-18T07:51:30.889Z,96.61
2024-01-18T07:53:58.264Z,96.45
2024-01-18T07:56:25.389Z,96.51
2024-01-18T07:58:52.606Z,96.07
2024-01-18T08:01:20.205Z,96.06
2024-01-18T08:03:47.519Z,95.79
2024-01-18T08:06:14.890Z,95.68
2024-01-18T08:08:42.079Z,95.58
2024-01-18T08:11:13.995Z,95.70
2024-01-18T08:13:41.902Z,95.81
2024-01-18T08:16:09.939Z,95.22
2024-01-18T08:18:37.845Z,95.46
2024-01-18T08:21:07.464Z,95.70
2024-01-18T08:23:36.989Z,95.43
2024-01-18T08:26:04.174Z,95.11
2024-01-18T08:28:31.265Z,94.94
2024-01-18T08:30:59.213Z,94.32
2024-01-18T08:33:26.412Z,93.83
2024-01-18T08:35:53.507Z,94.45
2024-01-18T08:38:22.255Z,94.42
2024-01-18T08:40:49.541Z,94.02
2024-01-18T08:43:16.800Z,93.61
2024-01-18T08:45:44.128Z,93.60
2024-01-18T08:48:11.757Z,93.95
2024-01-18T08:50:39.324Z,93.86
2024-01-18T08:53:08.055Z,93.63
2024-01-18T08:55:39.385Z,94.24
2024-01-18T08:58:07.933Z,94.35
2024-01-18T09:00:35.674Z,94.58
2024-01-18T09:03:02.884Z,94.31
2024-01-18T09:05:30.855Z,94.78
2024-01-18T09:07:59.483Z,95.41
2024-01-18T09:10:27.652Z,95.34
2024-01-18T09:12:54.898Z,94.93
2024-01-18T09:15:23.324Z,94.97
2024-01-18T09:17:50.459Z,95.40
2024-01-18T09:20:17.757Z,95.21
2024-01-18T09:22:44.956Z,95.27
2024-01-18T09:25:12.170Z,95.19
2024-01-18T09:27:39.393Z,94.59
2024-01-18T09:30:09.916Z,94.69
2024-01-18T09:32:37.138Z,94.74
2024-01-18T09:35:06.919Z,95.21
2024-01-18T09:37:34.070Z,95.05
2024-01-18T09:40:01.292Z,95.11
2024-01-18T09:42:32.486Z,94.93
2024-01-18T09:45:10.381Z,95.23
2024-01-18T09:47:37.713Z,95.27
2024-01-18T09:50:05.712Z,94.93
2024-01-18T09:52:34.493Z,94.63
2024-01-18T09:55:01.770Z,94.28
2024-01-18T09:57:33.883Z,94.42
2024-01-18T10:00:05.494Z,94.58
2024-01-18T10:02:33.686Z,94.22
2024-01-18T10:05:01.836Z,94.25
2024-01-18T10:07:29.157Z,94.66
2024-01-18T10:09:57.486Z,94.70
2024-01-18T10:12:31.099Z,94.49
2024-01-18T10:14:58.387Z,94.64
2024-01-18T10:17:27.156Z,94.68
2024-01-18T10:19:57.978Z,94.71
2024-01-18T10:22:26.158Z,94.40
2024-01-18T10:24:53.565Z,94.50
2024-01-18T10:27:20.998Z,93.21
2024-01-18T10:29:48.189Z,92.61
2024-01-18T10:32:17.858Z,92.64
2024-01-18T10:34:45.136Z,92.66
2024-01-18T10:37:16.735Z,93.04
2024-01-18T10:39:44.953Z,93.33
2024-01-18T10:42:13.469Z,93.30
2024-01-18T10:44:48.508Z,92.65
2024-01-18T10:47:16.203Z,92.40
2024-01-18T10:49:46.329Z,91.73
2024-01-18T10:52:13.594Z,91.14
2024-01-18T10:54:46.996Z,91.05
2024-01-18T10:57:22.810Z,91.43
2024-01-18T10:59:50.638Z,91.64
2024-01-18T11:02:18.081Z,91.80
2024-01-18T11:04:45.709Z,92.22
2024-01-18T11:07:14.356Z,92.32
2024-01-18T11:09:41.712Z,92.47
2024-01-18T11:12:09.266Z,92.79
2024-01-18T11:14:37.228Z,92.99
2024-01-18T11:17:17.385Z,93.36
2024-01-18T11:19:48.410Z,93.22
2024-01-18T11:22:26.289Z,92.81
2024-01-18T11:25:07.117Z,92.92
2024-01-18T11:27:41.698Z,91.74
2024-01-18T11:30:11.921Z,91.33
2024-01-18T11:32:39.841Z,90.92
2024-01-18T11:35:11.445Z,90.96
2024-01-18T11:37:39.598Z,91.14
2024-01-18T11:40:11.143Z,91.69
2024-01-18T11:42:42.200Z,92.01
2024-01-18T11:45:12.204Z,92.04
2024-01-18T11:47:40.176Z,91.47
2024-01-18T11:50:10.287Z,91.48
2024-01-18T11:52:44.897Z,91.95
2024-01-18T11:55:13.013Z,92.69
2024-01-18T11:57:40.196Z,92.45
2024-01-18T12:00:07.960Z,92.24
2024-01-18T12:02:35.163Z,92.51
2024-01-18T12:05:04.767Z,93.23
2024-01-18T12:07:33.783Z,93.19
2024-01-18T12:10:02.231Z,93.09
2024-01-18T12:12:29.688Z,93.34
2024-01-18T12:15:02.552Z,93.48
2024-01-18T12:17:29.856Z,93.04
2024-01-18T12:19:57.050Z,92.78
2024-01-18T12:22:27.502Z,92.64
2024-01-18T12:24:55.173Z,92.91
2024-01-18T12:27:22.437Z,92.84
2024-01-18T12:29:49.656Z,93.21
2024-01-18T12:32:18.023Z,93.45
2024-01-18T12:34:45.913Z,93.73
2024-01-18T12:37:13.767Z,93.53
2024-01-18T12:39:41.044Z,94.08
2024-01-18T12:42:08.456Z,94.03
2024-01-18T12:44:35.694Z,94.07
2024-01-18T12:47:05.669Z,93.32
2024-01-18T12:49:34.768Z,93.69
2024-01-18T12:52:03.807Z,93.27
2024-01-18T12:54:32.969Z,93.25
2024-01-18T12:57:01.581Z,93.92
2024-01-18T12:59:31.385Z,93.24
2024-01-18T13:01:59.287Z,93.23
2024-01-18T13:04:34.625Z,93.60
2024-01-18T13:07:04.127Z,93.40
2024-01-18T13:09:34.466Z,94.00
2024-01-18T13:12:07.010Z,93.69
2024-01-18T13:14:35.282Z,93.96
2024-01-18T13:17:02.523Z,93.86
2024-01-18T13:19:30.472Z,94.27
2024-01-18T13:21:58.079Z,94.25
2024-01-18T13:24:25.485Z,94.39
2024-01-18T13:26:52.989Z,94.64
2024-01-18T13:29:20.199Z,94.47
2024-01-18T13:31:48.794Z,94.18
2024-01-18T13:34:18.311Z,94.58
2024-01-18T13:36:46.039Z,94.39
2024-01-18T13:39:13.481Z,93.76
2024-01-18T13:41:40.752Z,93.72
2024-01-18T13:44:09.126Z,93.89
2024-01-18T13:46:39.550Z,94.38
2024-01-18T13:49:06.793Z,94.22
2024-01-18T13:51:34.352Z,94.28
2024-01-18T13:54:01.916Z,94.01
2024-01-18T13:56:29.512Z,94.16
2024-01-18T13:58:56.792Z,94.43
2024-01-18T14:01:24.278Z,94.47
2024-01-18T14:03:54.114Z,93.98
2024-01-18T14:06:23.827Z,94.82
2024-01-18T14:08:51.547Z,94.35
2024-01-18T14:11:18.787Z,94.00
2024-01-18T14:13:45.939Z,94.12
2024-01-18T14:16:13.583Z,93.89
2024-01-18T14:18:42.071Z,93.54
2024-01-18T14:21:09.743Z,93.83
2024-01-18T14:23:37.109Z,93.32
2024-01-18T14:26:05.509Z,93.25
2024-01-18T14:28:33.442Z,93.68
2024-01-18T14:31:01.749Z,93.66
2024-01-18T14:33:29.318Z,93.69
2024-01-18T14:35:56.674Z,93.21
2024-01-18T14:38:23.837Z,93.81
2024-01-18T14:40:51.058Z,94.11
2024-01-18T14:43:20.815Z,93.87
2024-01-18T14:45:49.907Z,93.48
2024-01-18T14:48:18.225Z,93.52
2024-01-18T14:50:46.286Z,93.97
2024-01-18T14:53:17.510Z,93.22
2024-01-18T14:55:44.946Z,93.62
2024-01-18T14:58:12.581Z,93.93
2024-01-18T15:00:41.525Z,94.31
2024-01-18T15:03:09.266Z,93.99
2024-01-18T15:05:38.383Z,93.92
2024-01-18T15:08:07.405Z,94.03
2024-01-18T15:10:34.965Z,94.09
2024-01-18T15:13:02.310Z,94.44
2024-01-18T15:15:30.583Z,94.45
2024-01-18T15:17:58.379Z,94.48
2024-01-18T15:20:25.849Z,94.81
2024-01-18T15:22:53.205Z,94.28
2024-01-18T15:25:20.434Z,94.85
2024-01-18T15:27:47.706Z,94.32
2024-01-18T15:30:15.286Z,94.44
2024-01-18T15:32:42.524Z,94.15
2024-01-18T15:35:11.132Z,94.90
2024-01-18T15:37:38.559Z,94.46
2024-01-18T15:40:10.558Z,94.33
2024-01-18T15:42:37.945Z,94.49
2024-01-18T15:45:05.860Z,94.75
2024-01-18T15:47:40.427Z,95.09
2024-01-18T15:50:08.607Z,94.96
2024-01-18T15:52:36.483Z,94.82
2024-01-18T15:55:05.033Z,94.99
2024-01-18T15:57:32.583Z,94.88
2024-01-18T15:59:59.999Z,95.01
2024-01-18T16:02:27.152Z,95.17
2024-01-18T16:04:55.817Z,95.52
2024-01-18T16:07:23.861Z,95.44
2024-01-18T16:09:55.212Z,95.16
2024-01-18T16:12:22.408Z,95.14
2024-01-18T16:14:49.554Z,95.41
2024-01-18T16:17:16.712Z,95.58
2024-01-18T16:19:43.868Z,95.06
2024-01-18T16:22:11.094Z,95.28
2024-01-18T16:24:38.387Z,94.92
2024-01-18T16:27:05.704Z,95.22
2024-01-18T16:29:41.516Z,95.38
2024-01-18T16:32:19.620Z,94.85
2024-01-18T16:34:46.772Z,95.03
2024-01-18T16:37:13.894Z,95.39
2024-01-18T16:39:42.058Z,95.03
2024-01-18T16:42:09.196Z,95.62
2024-01-18T16:44:36.316Z,95.57
2024-01-18T16:47:03.966Z,96.06
2024-01-18T16:49:31.135Z,95.54
2024-01-18T16:51:58.375Z,95.96
2024-01-18T16:54:26.044Z,95.53
2024-01-18T16:56:53.170Z,95.97
2024-01-18T16:59:20.320Z,95.76
2024-01-18T17:01:47.430Z,95.43
2024-01-18T17:04:15.810Z,95.77
2024-01-18T17:06:45.111Z,95.67
2024-01-18T17:09:12.340Z,95.38
2024-01-18T17:11:39.531Z,95.66
2024-01-18T17:14:06.741Z,95.78
2024-01-18T17:16:34.112Z,95.03
2024-01-18T17:19:01.709Z,95.36
2024-01-18T17:21:28.868Z,95.49
2024-01-18T17:23:56.010Z,95.14
2024-01-18T17:26:23.402Z,95.82
2024-01-18T17:28:50.532Z,95.26
2024-01-18T17:31:17.792Z,95.74
2024-01-18T17:33:45.108Z,95.28
2024-01-18T17:36:12.383Z,95.48
2024-01-18T17:38:39.991Z,95.37
2024-01-18T17:41:07.264Z,95.40
2024-01-18T17:43:34.420Z,95.56
2024-01-18T17:46:04.101Z,95.59
2024-01-18T17:48:33.987Z,94.93
2024-01-18T17:51:02.804Z,94.67
2024-01-18T17:53:30.046Z,94.96
2024-01-18T17:55:59.882Z,94.80
2024-01-18T17:58:28.079Z,94.33
2024-01-18T18:00:55.151Z,94.48
2024-01-18T18:03:22.280Z,95.13
2024-01-18T18:05:49.693Z,94.28
2024-01-18T18:08:16.933Z,94.40
2024-01-18T18:10:45.088Z,94.41
2024-01-18T18:13:12.204Z,94.40
2024-01-18T18:15:45.047Z,94.71
2024-01-18T18:18:17.861Z,94.61
2024-01-18T18:20:45.131Z,94.84
2024-01-18T18:23:12.346Z,95.20
2024-01-18T18:25:39.515Z,94.92
2024-01-18T18:28:06.695Z,94.88
2024-01-18T18:30:36.847Z,94.61
2024-01-18T18:33:06.601Z,94.29
2024-01-18T18:35:34.016Z,94.67
2024-01-18T18:38:01.331Z,94.20
2024-01-18T18:40:30.481Z,93.99
2024-01-18T18:42:57.637Z,93.74
2024-01-18T18:45:24.740Z,93.52
2024-01-18T18:47:54.374Z,93.33
2024-01-18T18:50:21.627Z,93.42
2024-01-18T18:52:49.972Z,93.21
2024-01-18T18:55:20.069Z,93.09
2024-01-18T18:57:49.436Z,93.34
2024-01-18T19:00:16.913Z,93.85
2024-01-18T19:02:44.293Z,93.37
2024-01-18T19:05:11.981Z,93.63
2024-01-18T19:07:39.187Z,93.67
2024-01-18T19:10:06.959Z,93.63
2024-01-18T19:12:34.439Z,93.65
2024-01-18T19:15:01.539Z,93.58
2024-01-18T19:17:28.771Z,93.95
2024-01-18T19:19:55.994Z,93.74
2024-01-18T19:22:23.126Z,94.00
2024-01-18T19:24:50.344Z,94.13
2024-01-18T19:27:18.775Z,93.94
2024-01-18T19:29:46.321Z,93.64
2024-01-18T19:32:13.695Z,93.94
2024-01-18T19:34:40.934Z,93.63
2024-01-18T19:37:08.067Z,93.83
2024-01-18T19:39:40.509Z,93.94
2024-01-18T19:42:08.068Z,94.58
2024-01-18T19:44:35.439Z,94.18
2024-01-18T19:47:03.443Z,94.44
2024-01-18T19:49:30.608Z,94.40
2024-01-18T19:51:58.849Z,94.40
2024-01-18T19:54:26.031Z,94.71
2024-01-18T19:56:53.516Z,93.66
2024-01-18T19:59:20.774Z,93.96
2024-01-18T20:01:48.745Z,94.06
2024-01-18T20:04:16.001Z,93.82
2024-01-18T20:06:43.358Z,93.40
2024-01-18T20:09:10.935Z,93.46
2024-01-18T20:11:39.173Z,93.56
2024-01-18T20:14:06.439Z,93.88
2024-01-18T20:16:33.739Z,93.76
2024-01-18T20:19:00.954Z,94.49
2024-01-18T20:21:28.140Z,94.53
2024-01-18T20:23:55.637Z,93.99
2024-01-18T20:26:22.935Z,94.41
2024-01-18T20:28:51.405Z,94.12
2024-01-18T20:31:19.050Z,94.42
2024-01-18T20:33:46.982Z,94.65
2024-01-18T20:36:15.149Z,94.27
2024-01-18T20:38:43.231Z,94.08
2024-01-18T20:41:11.439Z,94.13
2024-01-18T20:43:38.687Z,93.98
2024-01-18T20:46:05.809Z,93.97
2024-01-18T20:48:32.996Z,93.66
2024-01-18T20:51:00.305Z,93.15
2024-01-18T20:53:28.160Z,92.98
2024-01-18T20:55:55.318Z,93.34
2024-01-18T20:58:22.800Z,93.82
2024-01-18T21:00:50.032Z,94.02
2024-01-18T21:03:17.208Z,94.32
2024-01-18T21:05:44.476Z,94.37
2024-01-18T21:08:11.699Z,94.49
2024-01-18T21:10:38.835Z,94.72
2024-01-18T21:13:06.009Z,94.37
2024-01-18T21:15:33.230Z,94.58
2024-01-18T21:18:00.426Z,94.42
2024-01-18T21:20:27.676Z,94.70
2024-01-18T21:22:54.947Z,94.48
2024-01-18T21:25:22.199Z,94.71
2024-01-18T21:27:49.440Z,94.72
2024-01-18T21:30:16.658Z,94.56
2024-01-18T21:32:44.203Z,94.95
2024-01-18T21:35:11.405Z,94.69
2024-01-18T21:37:38.649Z,94.43
2024-01-18T21:40:06.363Z,94.82
2024-01-18T21:42:33.653Z,94.83
2024-01-18T21:45:00.972Z,94.32
2024-01-18T21:47:28.215Z,94.56
2024-01-18T21:49:55.456Z,94.56
2024-01-18T21:52:22.849Z,94.48
2024-01-18T21:54:51.454Z,94.04
2024-01-18T21:57:19.062Z,93.95
2024-01-18T21:59:46.310Z,94.49
2024-01-18T22:02:13.848Z,94.44
2024-01-18T22:04:41.405Z,94.52
2024-01-18T22:07:09.466Z,93.85
2024-01-18T22:09:41.971Z,94.21
2024-01-18T22:12:11.804Z,93.77
2024-01-18T22:14:39.603Z,93.59
2024-01-18T22:17:07.124Z,93.91
2024-01-18T22:19:43.565Z,93.69
2024-01-18T22:22:19.121Z,93.84
2024-01-18T22:24:46.594Z,94.23
2024-01-18T22:27:13.721Z,94.20
2024-01-18T22:29:43.326Z,94.22
2024-01-18T22:32:16.235Z,94.02
2024-01-18T22:34:43.462Z,93.31
2024-01-18T22:37:10.542Z,93.66
2024-01-18T22:39:37.663Z,94.08
2024-01-18T22:42:04.815Z,93.60
2024-01-18T22:44:32.102Z,93.84
2024-01-18T22:46:59.237Z,93.94
2024-01-18T22:49:26.975Z,93.93
2024-01-18T22:51:54.261Z,93.59
2024-01-18T22:54:21.412Z,93.71
2024-01-18T22:56:48.644Z,93.44
2024-01-18T22:59:15.740Z,93.27
2024-01-18T23:01:43.625Z,93.50
2024-01-18T23:04:14.904Z,93.60
2024-01-18T23:06:42.948Z,92.92
2024-01-18T23:09:11.649Z,93.37
2024-01-18T23:11:38.892Z,93.32
2024-01-18T23:14:06.002Z,93.21
2024-01-18T23:16:33.254Z,93.34
2024-01-18T23:19:00.379Z,93.63
2024-01-18T23:21:27.539Z,93.42
2024-01-18T23:23:54.737Z,93.81
2024-01-18T23:26:21.907Z,93.41
2024-01-18T23:28:49.220Z,93.39
2024-01-18T23:31:16.543Z,93.40
2024-01-18T23:33:43.753Z,93.75
2024-01-18T23:36:11.938Z,93.92
2024-01-18T23:38:39.567Z,93.84
2024-01-18T23:41:06.781Z,93.71
2024-01-18T23:43:33.876Z,93.11
2024-01-18T23:46:02.178Z,92.37
2024-01-18T23:48:29.299Z,92.81
2024-01-18T23:50:56.403Z,92.04
2024-01-18T23:53:23.588Z,91.91
2024-01-18T23:55:50.710Z,92.29
2024-01-18T23:58:17.800Z,92.20
